Time;durP1;ratioP1;P1;durP2;ratioP2;P2;SDS_P1;SDS_P2;PMS_P1;PMS_P2;Temp;Humidity;BMP_temperature;BMP_pressure;BME280_temperature;BME280_humidity;BME280_pressure;Samples;Min_cycle;Max_cycle;Signal;HPM_P1;HPM_P2
2023/06/01 00:01:01;;;;;;;3.10;2.40;;;24.70;45.10;25.50;101249.00;;;;5011104;28;20200;-51
2023/06/01 00:03:29;;;;;;;3.72;2.40;;;24.70;45.10;25.30;101252.00;;;;5010968;28;20207;-52
2023/06/01 00:05:56;;;;;;;3.85;2.60;;;24.70;45.10;25.50;101253.00;;;;5010675;28;20179;-52
2023/06/01 00:08:22;;;;;;;3.03;2.42;;;24.70;45.10;25.50;101252.00;;;;5010703;28;20211;-52
2023/06/01 00:10:49;;;;;;;3.45;2.35;;;24.60;45.20;25.50;101253.00;;;;5010129;28;20207;-52
2023/06/01 00:13:15;;;;;;;2.67;2.20;;;24.60;45.30;25.40;101258.00;;;;5018032;28;20194;-52
2023/06/01 00:15:41;;;;;;;3.70;2.38;;;24.60;45.40;25.20;101259.00;;;;5010782;28;20175;-52
2023/06/01 00:18:08;;;;;;;2.90;2.40;;;24.60;45.40;25.40;101255.00;;;;5010543;28;20618;-51
2023/06/01 00:20:34;;;;;;;2.58;2.30;;;24.60;45.50;25.40;101261.00;;;;5010865;28;20584;-52
2023/06/01 00:23:00;;;;;;;2.80;2.30;;;24.60;45.50;25.40;101256.00;;;;5010828;28;20183;-53
2023/06/01 00:25:26;;;;;;;2.95;2.50;;;24.60;45.50;25.40;101255.00;;;;5008951;28;20592;-52
2023/06/01 00:27:52;;;;;;;4.40;2.55;;;24.60;45.60;25.30;101244.00;;;;5010431;28;20227;-52
2023/06/01 00:30:18;;;;;;;2.70;2.30;;;24.60;45.60;25.30;101249.00;;;;5010569;28;20223;-51
2023/06/01 00:32:44;;;;;;;3.58;2.42;;;24.50;45.60;25.30;101248.00;;;;5010498;28;20685;-53
2023/06/01 00:35:09;;;;;;;3.28;2.50;;;24.60;46.40;25.30;101261.00;;;;5010280;28;20225;-52
2023/06/01 00:37:35;;;;;;;3.92;2.58;;;24.50;45.60;25.30;101250.00;;;;5010714;28;20579;-53
2023/06/01 00:40:01;;;;;;;2.72;2.30;;;24.50;45.60;25.30;101254.00;;;;5010350;28;20195;-52
2023/06/01 00:42:27;;;;;;;2.88;2.58;;;24.50;45.60;25.20;101256.00;;;;5010633;28;20235;-53
2023/06/01 00:44:53;;;;;;;3.65;2.60;;;24.40;45.60;25.20;101256.00;;;;5010602;28;20187;-52
2023/06/01 00:47:19;;;;;;;3.83;2.58;;;24.40;45.60;25.20;101252.00;;;;5010311;28;20215;-52
2023/06/01 00:49:46;;;;;;;2.77;2.30;;;24.40;45.60;25.20;101245.00;;;;5012567;28;20590;-52
2023/06/01 00:52:12;;;;;;;2.88;2.30;;;24.40;45.70;25.20;101247.00;;;;5013789;28;20744;-51
2023/06/01 00:54:38;;;;;;;3.37;2.40;;;24.40;45.70;25.20;101249.00;;;;4994574;28;20179;-53
2023/06/01 00:57:05;;;;;;;3.50;2.50;;;24.40;45.70;25.10;101244.00;;;;5009866;28;20182;-53
2023/06/01 00:59:33;;;;;;;2.63;2.42;;;24.40;45.80;25.10;101244.00;;;;5009358;28;20643;-52
2023/06/01 01:01:58;;;;;;;3.50;2.67;;;24.40;45.80;25.10;101258.00;;;;4992488;28;20230;-52
2023/06/01 01:04:27;;;;;;;3.05;2.42;;;24.40;45.90;25.10;101247.00;;;;5009621;28;20578;-52
2023/06/01 01:07:20;;;;;;;2.53;2.33;;;24.30;45.80;25.10;101255.00;;;;5010336;28;20215;-51
2023/06/01 01:09:56;;;;;;;2.95;2.28;;;24.30;45.80;25.00;101256.00;;;;5016324;28;20269;-52
2023/06/01 01:12:48;;;;;;;2.58;2.20;;;24.30;46.00;25.00;101245.00;;;;4992463;28;20206;-52
2023/06/01 01:15:22;;;;;;;3.55;2.65;;;24.30;46.00;25.00;101239.00;;;;4994630;28;20179;-52
2023/06/01 01:17:48;;;;;;;4.63;2.47;;;24.20;45.90;25.00;101252.00;;;;5009104;28;20269;-52
2023/06/01 01:20:50;;;;;;;2.63;2.40;;;24.30;45.90;25.00;101257.00;;;;5009550;28;20525;-53
2023/06/01 01:23:38;;;;;;;2.83;2.30;;;24.30;46.00;25.00;101263.00;;;;4986674;28;20272;-53
2023/06/01 01:26:22;;;;;;;3.23;2.40;;;24.30;46.10;24.90;101200.00;;;;5011554;28;20263;-52
2023/06/01 01:29:26;;;;;;;2.58;2.30;;;24.20;46.00;24.90;101263.00;;;;5009617;28;20266;-53
2023/06/01 01:31:51;;;;;;;3.37;2.30;;;24.20;46.10;24.90;101260.00;;;;5000549;28;20200;-52
2023/06/01 01:34:19;;;;;;;2.88;2.55;;;24.20;46.10;24.90;101263.00;;;;4991624;28;20187;-53
2023/06/01 01:36:45;;;;;;;2.53;2.25;;;24.20;46.20;24.90;101264.00;;;;4992045;28;20590;-53
2023/06/01 01:39:11;;;;;;;3.90;2.63;;;24.20;46.10;24.90;101273.00;;;;5009237;28;20215;-53
2023/06/01 01:41:36;;;;;;;2.93;2.47;;;24.20;46.10;24.90;101270.00;;;;5009088;28;20179;-53
2023/06/01 01:44:03;;;;;;;2.43;2.23;;;24.20;46.10;24.80;101281.00;;;;5008819;28;20222;-53
2023/06/01 01:46:30;;;;;;;2.67;2.30;;;24.20;46.20;24.80;101276.00;;;;4991309;28;20176;-52
2023/06/01 01:49:20;;;;;;;3.50;2.30;;;24.10;46.00;24.80;101280.00;;;;4991528;28;20239;-53
2023/06/01 01:52:16;;;;;;;2.53;2.33;;;24.10;46.10;24.80;101271.00;;;;4991677;28;20207;-53
2023/06/01 01:54:44;;;;;;;2.50;2.30;;;24.10;46.00;24.80;101265.00;;;;4994224;28;20286;-53
2023/06/01 01:57:12;;;;;;;2.50;2.30;;;24.10;46.00;24.80;101261.00;;;;4991194;28;20242;-53
2023/06/01 01:59:37;;;;;;;3.47;2.50;;;24.10;46.00;24.70;101259.00;;;;4991356;28;20393;-52
2023/06/01 02:02:03;;;;;;;3.47;2.40;;;24.10;46.10;24.70;101266.00;;;;4975221;28;20176;-53
2023/06/01 02:04:30;;;;;;;2.55;2.33;;;24.10;46.00;24.70;101267.00;;;;5008402;28;20202;-52
2023/06/01 02:06:56;;;;;;;2.50;2.30;;;24.00;46.00;24.70;101263.00;;;;5008613;28;20806;-52
2023/06/01 02:09:21;;;;;;;3.17;2.50;;;24.00;46.00;24.70;101257.00;;;;5008591;28;20207;-52
2023/06/01 02:11:47;;;;;;;2.78;2.50;;;24.00;46.10;24.70;101260.00;;;;5007824;28;20176;-52
2023/06/01 02:14:13;;;;;;;2.60;2.40;;;24.10;46.20;24.70;101261.00;;;;5008355;28;20195;-52
2023/06/01 02:16:38;;;;;;;2.83;2.47;;;24.00;46.20;24.70;101263.00;;;;5008571;28;20171;-52
2023/06/01 02:19:04;;;;;;;2.60;2.40;;;24.00;46.10;24.60;101256.00;;;;5008311;28;20202;-53
2023/06/01 02:21:31;;;;;;;2.55;2.35;;;24.00;46.10;24.60;101257.00;;;;5008598;28;20685;-53
2023/06/01 02:24:04;;;;;;;3.67;2.60;;;24.00;46.20;24.60;101257.00;;;;5008375;28;20808;-52
2023/06/01 02:26:30;;;;;;;2.70;2.50;;;24.00;46.20;24.60;101252.00;;;;5008656;28;20270;-52
2023/06/01 02:28:56;;;;;;;2.63;2.43;;;24.00;46.20;24.60;101264.00;;;;5008456;28;20207;-52
2023/06/01 02:31:22;;;;;;;2.60;2.40;;;24.00;46.10;24.60;101259.00;;;;5008349;28;20210;-52
2023/06/01 02:33:48;;;;;;;2.58;2.22;;;24.00;46.10;24.60;101261.00;;;;5006758;28;20680;-52
2023/06/01 02:36:16;;;;;;;3.97;2.50;;;24.00;46.10;24.50;101258.00;;;;5008101;28;20262;-52
2023/06/01 02:38:42;;;;;;;3.73;2.27;;;24.00;46.20;24.50;101260.00;;;;5008439;28;20230;-52
2023/06/01 02:41:08;;;;;;;2.63;2.35;;;23.90;46.10;24.50;101261.00;;;;5007122;28;20195;-52
2023/06/01 02:43:36;;;;;;;2.60;2.40;;;23.90;46.00;24.50;101267.00;;;;5008450;28;20235;-52
2023/06/01 02:46:03;;;;;;;2.43;2.23;;;23.90;46.10;24.50;101271.00;;;;5007948;28;20552;-52
2023/06/01 02:48:29;;;;;;;2.90;2.30;;;23.90;46.10;24.50;101269.00;;;;5007511;28;20304;-52
2023/06/01 02:50:55;;;;;;;3.30;2.58;;;23.90;46.10;24.40;101273.00;;;;5007954;28;20290;-52
2023/06/01 02:53:21;;;;;;;2.70;2.50;;;23.90;46.10;24.40;101268.00;;;;5008321;28;20171;-52
2023/06/01 02:55:47;;;;;;;2.57;2.37;;;23.90;46.10;24.40;101265.00;;;;5007965;28;20549;-52
2023/06/01 02:58:16;;;;;;;2.60;2.33;;;23.80;46.00;24.40;101268.00;;;;5007916;28;20190;-52
2023/06/01 03:00:42;;;;;;;4.25;2.70;;;23.80;46.10;24.40;101271.00;;;;5008043;28;20677;-52
2023/06/01 03:03:08;;;;;;;2.50;2.30;;;23.80;46.20;24.30;101263.00;;;;5008033;28;20179;-51
2023/06/01 03:05:35;;;;;;;2.72;2.50;;;23.80;46.10;24.30;101262.00;;;;5007895;28;20183;-52
2023/06/01 03:08:01;;;;;;;2.57;2.37;;;23.80;46.00;24.30;101262.00;;;;5007673;28;20208;-52
2023/06/01 03:10:27;;;;;;;2.77;2.53;;;23.80;46.00;24.30;101267.00;;;;5014544;28;20222;-52
2023/06/01 03:12:53;;;;;;;2.73;2.47;;;23.80;46.10;24.30;101267.00;;;;5009364;28;20168;-52
2023/06/01 03:15:19;;;;;;;2.90;2.50;;;23.80;46.10;24.20;101265.00;;;;5007858;28;20634;-52
2023/06/01 03:17:44;;;;;;;2.57;2.37;;;23.70;46.00;24.20;101268.00;;;;5006757;28;20218;-52
2023/06/01 03:20:14;;;;;;;3.33;2.40;;;23.70;46.00;24.20;101273.00;;;;5007957;28;20227;-52
2023/06/01 03:22:44;;;;;;;3.10;2.60;;;23.70;46.10;24.20;101277.00;;;;5009069;28;20234;-52
2023/06/01 03:25:12;;;;;;;2.70;2.27;;;23.70;46.00;24.20;101268.00;;;;5014291;28;20211;-52
2023/06/01 03:27:39;;;;;;;3.17;2.43;;;23.70;46.00;24.10;101265.00;;;;5013221;28;20227;-52
2023/06/01 03:30:09;;;;;;;4.20;2.57;;;23.70;46.00;24.10;101267.00;;;;5011961;28;20625;-52
2023/06/01 03:32:37;;;;;;;2.80;2.50;;;23.70;46.00;24.10;101263.00;;;;5012118;28;20643;-52
2023/06/01 03:35:07;;;;;;;2.63;2.40;;;23.60;45.90;24.10;101268.00;;;;5000969;28;20263;-52
2023/06/01 03:37:37;;;;;;;5.40;2.50;;;23.60;46.00;24.10;101271.00;;;;5012221;28;20187;-52
2023/06/01 03:40:12;;;;;;;4.43;2.50;;;23.60;46.30;24.00;101275.00;;;;5012978;28;20670;-52
2023/06/01 03:42:42;;;;;;;4.70;2.80;;;23.60;46.30;24.00;101270.00;;;;5012070;28;20262;-52
2023/06/01 03:45:09;;;;;;;3.20;2.50;;;23.60;46.50;24.00;101273.00;;;;5011420;28;20186;-52
2023/06/01 03:47:35;;;;;;;4.07;2.87;;;23.50;46.40;24.00;101278.00;;;;5012069;28;20199;-52
2023/06/01 03:50:01;;;;;;;3.27;2.63;;;23.50;46.40;24.00;101285.00;;;;5012236;28;20230;-52
2023/06/01 03:52:30;;;;;;;3.30;2.57;;;23.50;46.40;24.00;101277.00;;;;5006164;28;20188;-51
2023/06/01 03:54:57;;;;;;;3.27;2.73;;;23.50;46.40;23.90;101280.00;;;;5007981;28;20214;-52
2023/06/01 03:57:23;;;;;;;3.13;2.70;;;23.50;46.50;23.90;101286.00;;;;5004349;28;20183;-52
2023/06/01 03:59:50;;;;;;;3.47;2.60;;;23.50;46.40;23.90;101281.00;;;;5012196;28;20210;-52
2023/06/01 04:02:17;;;;;;;2.70;2.50;;;23.50;46.50;23.90;101284.00;;;;5012401;28;20210;-52
2023/06/01 04:04:45;;;;;;;2.97;2.30;;;23.40;46.40;23.90;101283.00;;;;5011937;28;20176;-52
2023/06/01 04:07:18;;;;;;;3.03;2.67;;;23.40;46.50;23.80;101282.00;;;;5011655;28;20203;-52
2023/06/01 04:09:46;;;;;;;3.73;3.43;;;23.40;46.60;23.80;101280.00;;;;5012119;28;20227;-52
2023/06/01 04:12:12;;;;;;;3.70;3.40;;;23.40;46.80;23.80;101296.00;;;;5011723;28;20594;-53
2023/06/01 04:14:38;;;;;;;4.47;3.20;;;23.40;47.00;23.60;101294.00;;;;5014101;28;20170;-52
2023/06/01 04:17:04;;;;;;;3.40;3.07;;;23.40;47.00;23.80;101291.00;;;;5014004;28;20183;-51
2023/06/01 04:19:30;;;;;;;3.50;3.20;;;23.40;47.30;23.70;101300.00;;;;5011837;28;20191;-52
2023/06/01 04:21:59;;;;;;;4.57;3.70;;;23.40;47.30;23.70;101290.00;;;;5011802;28;20191;-52
2023/06/01 04:24:25;;;;;;;3.63;3.33;;;23.40;47.60;23.70;101293.00;;;;5011455;28;20760;-51
2023/06/01 04:26:50;;;;;;;3.40;3.10;;;23.40;47.30;23.70;101305.00;;;;5010946;28;20179;-52
2023/06/01 04:29:19;;;;;;;4.90;4.40;;;23.30;47.10;23.70;101301.00;;;;5007607;28;20230;-51
2023/06/01 04:31:45;;;;;;;4.30;3.80;;;23.30;47.30;23.70;101302.00;;;;5011515;28;20180;-52
2023/06/01 04:34:12;;;;;;;5.43;3.40;;;23.30;47.20;23.60;101311.00;;;;5009707;28;20663;-52
2023/06/01 04:36:39;;;;;;;6.60;5.10;;;23.30;47.10;23.60;101299.00;;;;5011854;28;20175;-52
2023/06/01 04:39:06;;;;;;;4.93;4.43;;;23.30;47.60;23.60;101315.00;;;;5011568;28;20199;-52
2023/06/01 04:41:33;;;;;;;4.40;4.00;;;23.30;47.30;23.60;101306.00;;;;5011737;28;20183;-52
2023/06/01 04:43:59;;;;;;;4.30;3.90;;;23.30;47.30;23.60;101311.00;;;;5010975;28;20180;-52
2023/06/01 04:46:26;;;;;;;3.80;3.47;;;23.20;47.30;23.50;101320.00;;;;5011160;28;20187;-52
2023/06/01 04:49:00;;;;;;;4.20;3.80;;;23.20;47.20;23.60;101308.00;;;;5010455;28;20226;-52
2023/06/01 04:51:27;;;;;;;3.93;3.50;;;23.20;47.30;23.50;101313.00;;;;5011411;28;20309;-52
2023/06/01 04:53:53;;;;;;;4.17;3.77;;;23.10;47.30;23.50;101316.00;;;;5010730;28;20187;-51
2023/06/01 04:56:29;;;;;;;4.80;3.90;;;23.10;47.40;23.50;101310.00;;;;5009531;28;20183;-52
2023/06/01 04:58:55;;;;;;;4.20;3.80;;;23.00;47.40;23.50;101307.00;;;;4994227;28;20238;-52
2023/06/01 05:01:24;;;;;;;5.80;5.10;;;23.10;47.50;23.50;101313.00;;;;5010777;28;20662;-51
2023/06/01 05:03:51;;;;;;;5.67;5.10;;;23.10;47.80;23.50;101306.00;;;;5010506;28;20181;-51
2023/06/01 05:06:17;;;;;;;5.50;4.97;;;23.10;47.70;23.40;101306.00;;;;5010749;28;20175;-53
2023/06/01 05:08:43;;;;;;;6.07;5.47;;;23.10;47.90;23.40;101304.00;;;;5010374;28;20622;-52
2023/06/01 05:11:09;;;;;;;5.53;4.90;;;23.00;48.10;23.40;101306.00;;;;5011977;28;20190;-52
2023/06/01 05:13:36;;;;;;;7.73;5.20;;;22.90;48.20;23.40;101300.00;;;;5011575;28;20678;-53
2023/06/01 05:16:03;;;;;;;6.20;5.60;;;22.90;48.10;23.40;101306.00;;;;5011107;28;20179;-52
2023/06/01 05:18:29;;;;;;;5.33;4.60;;;22.90;48.20;23.40;101309.00;;;;5011034;28;20175;-52
2023/06/01 05:20:55;;;;;;;5.80;5.10;;;22.90;48.10;23.40;101318.00;;;;5011186;28;20195;-53
2023/06/01 05:23:20;;;;;;;7.40;5.20;;;22.90;48.20;23.30;101316.00;;;;5011916;28;20180;-53
2023/06/01 05:25:46;;;;;;;5.47;4.90;;;22.90;48.10;23.30;101319.00;;;;5010879;28;20187;-53
2023/06/01 05:28:12;;;;;;;6.50;5.80;;;22.80;48.10;23.30;101313.00;;;;5014365;28;20196;-53
2023/06/01 05:30:37;;;;;;;6.47;5.47;;;22.80;48.10;23.30;101317.00;;;;5012769;28;20206;-52
2023/06/01 05:33:03;;;;;;;5.90;5.30;;;22.80;48.10;23.30;101308.00;;;;5010253;28;20218;-53
2023/06/01 05:35:29;;;;;;;5.40;4.90;;;22.80;48.20;23.30;101309.00;;;;5010409;28;20662;-52
2023/06/01 05:37:55;;;;;;;5.87;5.27;;;22.80;48.30;23.30;101316.00;;;;5010589;28;20195;-52
2023/06/01 05:40:21;;;;;;;7.20;6.50;;;22.70;48.30;23.30;101318.00;;;;5010219;28;20557;-53
2023/06/01 05:42:46;;;;;;;7.03;6.33;;;22.80;48.70;23.30;101312.00;;;;5010034;28;20195;-52
2023/06/01 05:45:12;;;;;;;7.23;6.60;;;22.80;48.70;23.20;101313.00;;;;5008005;28;20195;-53
2023/06/01 05:47:38;;;;;;;7.13;6.53;;;22.80;48.70;23.20;101306.00;;;;5010099;28;20215;-53
2023/06/01 05:50:04;;;;;;;6.57;5.90;;;22.80;48.60;23.20;101314.00;;;;5010205;28;20242;-52
2023/06/01 05:52:30;;;;;;;6.43;5.83;;;22.70;48.40;23.20;101321.00;;;;5009962;28;20242;-53
2023/06/01 05:54:56;;;;;;;6.20;5.60;;;22.70;48.50;23.20;101320.00;;;;5008803;28;20237;-52
2023/06/01 05:57:22;;;;;;;6.90;6.23;;;22.70;48.60;23.20;101314.00;;;;5009644;28;20677;-53
2023/06/01 05:59:48;;;;;;;6.37;5.60;;;22.70;48.70;23.20;101317.00;;;;5009772;28;20726;-52
2023/06/01 06:02:14;;;;;;;6.87;6.27;;;22.70;48.70;23.20;101313.00;;;;5009712;28;20250;-52
2023/06/01 06:04:40;;;;;;;6.53;5.63;;;22.70;48.90;23.10;101314.00;;;;5010667;28;20241;-52
2023/06/01 06:07:06;;;;;;;6.20;5.60;;;22.60;48.80;23.20;101315.00;;;;5010358;28;20182;-53
2023/06/01 06:09:31;;;;;;;7.00;6.23;;;22.60;48.80;23.10;101311.00;;;;5009798;28;20195;-53
2023/06/01 06:11:57;;;;;;;6.83;6.23;;;22.60;48.80;23.10;101320.00;;;;5008508;28;20852;-53
2023/06/01 06:14:23;;;;;;;6.30;5.73;;;22.60;49.10;23.10;101317.00;;;;5007020;28;20214;-52
2023/06/01 06:16:49;;;;;;;8.67;6.20;;;22.60;48.90;23.10;101323.00;;;;5009601;28;20197;-52
2023/06/01 06:19:16;;;;;;;6.70;6.13;;;22.60;49.00;23.10;101328.00;;;;5009525;28;20622;-52
2023/06/01 06:21:41;;;;;;;6.50;5.90;;;22.60;49.00;23.10;101329.00;;;;5009404;28;20180;-53
2023/06/01 06:24:07;;;;;;;7.07;6.37;;;22.60;49.10;23.10;101330.00;;;;5009272;28;20249;-51
2023/06/01 06:26:33;;;;;;;6.00;5.50;;;22.60;49.10;23.00;101333.00;;;;5009868;28;20211;-51
2023/06/01 06:28:58;;;;;;;6.80;6.20;;;22.50;49.10;23.00;101325.00;;;;5009215;28;20212;-51
2023/06/01 06:31:24;;;;;;;6.60;6.00;;;22.50;49.30;23.00;101342.00;;;;5009061;28;20198;-51
2023/06/01 06:33:51;;;;;;;7.43;6.63;;;22.50;49.20;23.00;101342.00;;;;5008921;28;20259;-52
2023/06/01 06:36:16;;;;;;;6.83;6.23;;;22.50;49.30;23.00;101331.00;;;;5007785;28;20202;-52
2023/06/01 06:38:42;;;;;;;8.30;7.10;;;22.50;49.30;23.00;101335.00;;;;5007735;28;20175;-53
2023/06/01 06:41:08;;;;;;;9.20;8.27;;;22.50;49.30;23.00;101334.00;;;;5008300;28;20718;-52
2023/06/01 06:43:34;;;;;;;9.57;8.57;;;22.50;49.60;23.00;101335.00;;;;5009237;28;20187;-52
2023/06/01 06:46:00;;;;;;;9.10;8.20;;;22.50;49.60;22.90;101333.00;;;;5003273;28;20595;-52
2023/06/01 06:48:26;;;;;;;9.00;8.10;;;22.50;49.60;22.90;101326.00;;;;5008715;28;20199;-51
2023/06/01 06:50:51;;;;;;;7.67;6.97;;;22.50;49.60;22.90;101338.00;;;;5009880;28;20223;-52
2023/06/01 06:53:18;;;;;;;8.00;7.00;;;22.50;49.50;22.90;101336.00;;;;5008823;28;20175;-52
2023/06/01 06:55:44;;;;;;;7.07;6.47;;;22.50;49.50;22.90;101339.00;;;;5007828;28;20230;-52
2023/06/01 06:58:10;;;;;;;10.70;6.70;;;22.40;49.60;22.90;101336.00;;;;5007940;28;20188;-51
2023/06/01 07:00:37;;;;;;;6.70;6.00;;;22.50;50.10;23.00;101341.00;;;;5008836;28;20561;-51
2023/06/01 07:03:03;;;;;;;8.33;6.03;;;22.50;50.10;23.00;101356.00;;;;5009310;28;20191;-50
2023/06/01 07:05:29;;;;;;;6.10;5.50;;;22.50;50.00;23.00;101345.00;;;;5008911;28;20180;-49
2023/06/01 07:07:55;;;;;;;6.40;5.80;;;22.50;49.70;23.00;101357.00;;;;5009032;28;20298;-50
2023/06/01 07:10:20;;;;;;;6.87;5.97;;;22.50;49.70;23.00;101364.00;;;;5007917;28;20295;-52
2023/06/01 07:12:46;;;;;;;6.37;5.60;;;22.50;49.70;23.00;101351.00;;;;5009554;28;20562;-53
2023/06/01 07:15:12;;;;;;;7.00;5.70;;;22.50;49.70;23.10;101357.00;;;;5012947;28;20622;-52
2023/06/01 07:17:38;;;;;;;6.73;5.50;;;22.50;49.80;23.10;101358.00;;;;5008495;28;20175;-52
2023/06/01 07:20:06;;;;;;;6.23;5.63;;;22.60;49.90;23.10;101346.00;;;;5007608;28;20204;-51
2023/06/01 07:22:32;;;;;;;6.57;5.90;;;22.60;49.90;23.10;101349.00;;;;5007664;28;20176;-52
2023/06/01 07:24:58;;;;;;;6.07;5.57;;;22.60;49.90;23.10;101347.00;;;;5009004;28;20215;-53
2023/06/01 07:27:24;;;;;;;6.10;5.50;;;22.60;49.80;23.10;101352.00;;;;5009957;28;20244;-52
2023/06/01 07:29:55;;;;;;;6.07;5.40;;;22.60;49.80;22.90;101352.00;;;;5013878;28;20192;-52
2023/06/01 07:32:22;;;;;;;5.40;5.00;;;22.60;49.80;23.10;101359.00;;;;5010006;28;20172;-52
2023/06/01 07:34:48;;;;;;;6.00;5.20;;;22.60;49.80;23.10;101352.00;;;;5009433;28;20263;-52
2023/06/01 07:37:14;;;;;;;6.10;5.50;;;22.60;49.90;23.10;101360.00;;;;5009342;28;20175;-52
2023/06/01 07:39:39;;;;;;;5.87;5.27;;;22.50;49.70;23.10;101355.00;;;;5009325;28;20603;-53
2023/06/01 07:42:05;;;;;;;6.10;5.50;;;22.60;49.80;23.10;101356.00;;;;5009180;28;20196;-51
2023/06/01 07:44:31;;;;;;;6.30;5.43;;;22.60;49.80;23.10;101363.00;;;;5009097;28;20195;-52
2023/06/01 07:46:57;;;;;;;5.73;5.23;;;22.60;49.70;23.10;101352.00;;;;5009088;28;20187;-51
2023/06/01 07:49:22;;;;;;;5.97;5.40;;;22.60;49.70;23.10;101363.00;;;;5007595;28;20215;-51
2023/06/01 07:51:51;;;;;;;5.60;5.10;;;22.60;49.60;23.20;101358.00;;;;5009056;28;20183;-51
2023/06/01 07:54:17;;;;;;;5.77;5.20;;;22.60;49.60;23.10;101356.00;;;;5008945;28;20259;-51
2023/06/01 07:56:42;;;;;;;5.83;5.33;;;22.60;49.70;23.20;101368.00;;;;5009759;28;20255;-51
2023/06/01 07:59:08;;;;;;;5.93;5.30;;;22.60;49.80;23.20;101357.00;;;;5009035;28;20223;-51
2023/06/01 08:01:34;;;;;;;5.63;5.13;;;22.60;49.70;23.20;101351.00;;;;5009496;28;20191;-50
2023/06/01 08:04:01;;;;;;;5.40;5.00;;;22.60;49.70;23.20;101364.00;;;;5008961;28;20175;-50
2023/06/01 08:06:27;;;;;;;6.10;5.60;;;22.60;49.80;23.20;101356.00;;;;5009381;28;20207;-50
2023/06/01 08:08:53;;;;;;;6.10;5.57;;;22.60;49.70;23.20;101350.00;;;;5010649;28;20205;-51
2023/06/01 08:11:18;;;;;;;5.83;5.33;;;22.60;49.80;23.20;101356.00;;;;5012225;28;20175;-50
2023/06/01 08:13:47;;;;;;;5.80;5.30;;;22.60;49.80;23.20;101351.00;;;;5011111;28;20262;-50
2023/06/01 08:16:13;;;;;;;6.00;5.40;;;22.60;50.10;23.10;101356.00;;;;5012373;28;20180;-51
2023/06/01 08:18:39;;;;;;;5.70;5.30;;;22.60;50.40;23.20;101351.00;;;;5011114;28;20184;-52
2023/06/01 08:21:05;;;;;;;5.70;5.20;;;22.50;50.40;23.10;101341.00;;;;5012315;28;20218;-52
2023/06/01 08:23:31;;;;;;;5.73;5.13;;;22.50;50.50;23.20;101347.00;;;;5012354;28;20330;-49
2023/06/01 08:25:57;;;;;;;6.40;5.60;;;22.60;50.50;23.20;101339.00;;;;5013661;28;20182;-52
2023/06/01 08:28:22;;;;;;;5.40;5.00;;;22.60;50.70;23.20;101345.00;;;;5013559;28;20670;-51
2023/06/01 08:30:48;;;;;;;5.53;5.03;;;22.60;50.70;23.20;101345.00;;;;5012336;28;20200;-50
2023/06/01 08:33:15;;;;;;;6.13;5.53;;;22.60;50.90;23.20;101350.00;;;;5012210;28;20172;-50
2023/06/01 08:35:40;;;;;;;5.80;5.20;;;22.60;51.00;23.20;101349.00;;;;5012267;28;20187;-50
2023/06/01 08:38:06;;;;;;;5.60;5.17;;;22.60;50.90;23.20;101340.00;;;;5012226;28;20184;-51
2023/06/01 08:40:32;;;;;;;7.07;5.40;;;22.60;50.90;23.20;101338.00;;;;5012203;28;20210;-51
2023/06/01 08:43:18;;;;;;;6.37;5.67;;;22.60;51.20;23.20;101336.00;;;;5011826;28;20238;-51
2023/06/01 08:45:45;;;;;;;6.40;5.77;;;22.60;51.20;23.20;101335.00;;;;4995331;28;20183;-50
2023/06/01 08:48:13;;;;;;;8.00;5.40;;;22.60;51.20;23.20;101340.00;;;;5011928;28;20192;-50
2023/06/01 08:50:38;;;;;;;5.83;5.33;;;22.60;51.60;23.20;101355.00;;;;5010697;28;20207;-49
2023/06/01 08:53:05;;;;;;;6.13;5.53;;;22.60;51.30;23.20;101340.00;;;;5010475;28;20191;-49
2023/06/01 08:55:31;;;;;;;9.43;5.30;;;22.60;51.20;23.30;101357.00;;;;5010649;28;20180;-49
2023/06/01 08:57:56;;;;;;;8.20;5.60;;;22.60;51.20;23.30;101326.00;;;;4994160;28;20705;-50
2023/06/01 09:00:22;;;;;;;6.40;5.83;;;22.60;51.30;23.20;101334.00;;;;4994002;28;20203;-50
2023/06/01 09:02:49;;;;;;;6.60;6.00;;;22.60;51.50;23.20;101325.00;;;;4976549;28;20349;-51
2023/06/01 09:05:14;;;;;;;6.87;6.27;;;22.60;51.60;23.20;101331.00;;;;5007210;28;20195;-50
2023/06/01 09:07:40;;;;;;;6.63;5.90;;;22.60;51.70;23.20;101314.00;;;;5008881;28;20203;-50
2023/06/01 09:10:07;;;;;;;6.13;5.63;;;22.60;51.70;23.20;101326.00;;;;5009523;28;20200;-50
2023/06/01 09:12:33;;;;;;;6.97;6.40;;;22.60;51.70;23.30;101323.00;;;;5009421;28;20175;-50
2023/06/01 09:15:19;;;;;;;7.10;6.40;;;22.50;51.40;23.30;101309.00;;;;5011679;28;20381;-50
2023/06/01 09:17:47;;;;;;;7.00;6.40;;;22.60;51.60;23.20;101320.00;;;;5012668;28;20183;-51
2023/06/01 09:20:14;;;;;;;6.80;6.20;;;22.60;51.60;23.20;101326.00;;;;5008654;28;20450;-50
2023/06/01 09:22:40;;;;;;;8.60;6.67;;;22.60;52.30;23.30;101310.00;;;;5008830;28;20180;-50
2023/06/01 09:25:07;;;;;;;7.57;6.87;;;22.60;51.60;23.30;101315.00;;;;5008772;28;20603;-50
2023/06/01 09:27:47;;;;;;;8.03;7.33;;;22.60;51.60;23.30;101311.00;;;;5009411;28;20200;-50
2023/06/01 09:30:13;;;;;;;7.73;7.00;;;22.60;52.30;23.00;101299.00;;;;5011918;28;20207;-50
2023/06/01 09:32:39;;;;;;;7.97;7.17;;;22.50;51.60;23.30;101290.00;;;;5011937;28;20543;-50
2023/06/01 09:35:07;;;;;;;8.40;7.60;;;22.60;51.70;23.30;101304.00;;;;5007685;28;20183;-50
2023/06/01 09:37:37;;;;;;;8.40;7.70;;;22.60;51.60;23.30;101300.00;;;;5009754;28;20175;-50
2023/06/01 09:40:04;;;;;;;7.80;7.10;;;22.60;51.80;23.30;101303.00;;;;5009183;28;20555;-50
2023/06/01 09:42:34;;;;;;;8.23;7.50;;;22.60;51.70;23.30;101290.00;;;;4992569;28;20191;-49
2023/06/01 09:45:26;;;;;;;10.37;8.30;;;22.60;51.60;23.30;101298.00;;;;5009122;28;20302;-50
2023/06/01 09:47:52;;;;;;;12.50;9.90;;;22.60;51.90;23.30;101292.00;;;;5008561;28;20591;-51
2023/06/01 09:50:38;;;;;;;17.03;10.33;;;22.60;52.30;23.30;101302.00;;;;5010425;28;20215;-50
2023/06/01 09:53:04;;;;;;;41.10;19.53;;;22.60;52.30;23.30;101303.00;;;;5010225;28;20179;-50
2023/06/01 09:55:30;;;;;;;47.70;21.63;;;22.60;52.30;23.30;101289.00;;;;5009995;28;20183;-50
2023/06/01 09:58:18;;;;;;;64.13;27.23;;;22.70;52.00;23.30;101287.00;;;;5010423;28;20255;-50
2023/06/01 10:00:45;;;;;;;78.03;30.10;;;22.70;51.90;23.30;101286.00;;;;5009786;28;20246;-51
2023/06/01 10:03:11;;;;;;;69.67;28.50;;;22.70;51.90;23.30;101286.00;;;;5008783;28;20274;-52
2023/06/01 10:05:37;;;;;;;68.23;28.47;;;22.60;52.30;23.30;101279.00;;;;5008667;28;20179;-52
2023/06/01 10:08:02;;;;;;;73.83;29.90;;;22.70;52.40;23.30;101286.00;;;;5008819;28;20199;-51
2023/06/01 10:10:28;;;;;;;72.33;30.00;;;22.70;52.40;23.30;101288.00;;;;4992886;28;20200;-52
2023/06/01 10:12:54;;;;;;;68.50;28.60;;;22.60;52.30;23.30;101256.00;;;;5009106;28;20198;-52
2023/06/01 10:15:20;;;;;;;65.93;27.00;;;22.60;52.30;23.30;101273.00;;;;5007989;28;20520;-52
2023/06/01 10:17:45;;;;;;;60.93;26.73;;;22.70;52.40;23.30;101263.00;;;;4992907;28;20203;-51
2023/06/01 10:20:11;;;;;;;59.53;25.77;;;22.70;52.70;23.30;101268.00;;;;5009239;28;20195;-51
2023/06/01 10:22:41;;;;;;;56.23;25.00;;;22.70;52.50;23.30;101264.00;;;;5010870;28;20183;-52
2023/06/01 10:25:09;;;;;;;55.40;24.63;;;22.70;52.40;23.30;101257.00;;;;5009110;28;20241;-52
2023/06/01 10:28:03;;;;;;;57.00;24.80;;;22.70;52.40;23.40;101250.00;;;;4977019;28;20278;-50
2023/06/01 10:30:29;;;;;;;54.20;25.57;;;22.80;52.50;23.40;101261.00;;;;5010117;28;20196;-51
2023/06/01 10:32:54;;;;;;;56.07;24.03;;;22.80;52.50;23.40;101264.00;;;;5009111;28;20187;-52
2023/06/01 10:35:26;;;;;;;50.20;22.33;;;22.80;52.50;23.40;101254.00;;;;5009958;28;20178;-50
2023/06/01 10:38:12;;;;;;;53.00;23.77;;;22.80;52.70;23.40;101251.00;;;;5010046;28;20594;-51
2023/06/01 10:40:43;;;;;;;48.03;22.40;;;22.80;52.50;23.40;101255.00;;;;5010277;28;20560;-49
2023/06/01 10:43:38;;;;;;;48.47;21.60;;;22.80;52.70;23.40;101253.00;;;;5009786;28;20186;-51
2023/06/01 10:46:35;;;;;;;47.57;21.33;;;22.80;52.70;23.40;101259.00;;;;5008488;28;20724;-51
2023/06/01 10:49:02;;;;;;;46.33;21.77;;;22.80;53.00;23.40;101261.00;;;;5009064;28;20245;-51